• Join FlightAware (Why Join?)
  • Login
  • US Flag 
08:34AM EDT


 

Airport Tracker/Info


-or-


 

Live Flight TrackerFlight Track Log ✈ TSU361 ✈ 07-May-2012 ✈ KPTK - KBAK

Flight Track Log - Related Links

Times and Time Zones

All times are in EDT time to prevent confusion due to time zone crossing. See the TSU361 flight status page for this flight to view local times or setup timezone preferences in your user account.

Time Position Orientation Groundspeed Altitude Reporting Facility
EDT Latitude Longitude Course Direction KTS MPH feet Rate Location/Type
08:17AM 42.6672 -83.4069 93° East 181 208 1,600  Level Cleveland Center
08:18AM 42.6647 -83.3447 148° Southeast 182 209 3,300 1,680 Climbing Cleveland Center
08:19AM 42.6258 -83.3119 236° Southwest 210 242 4,700 1,680 Climbing Cleveland Center
08:20AM 42.5931 -83.3783 242° Southwest 213 245 6,600 1,140 Climbing Cleveland Center
08:21AM 42.5642 -83.4531 239° Southwest 260 299 7,000 180 Climbing Cleveland Center
08:22AM 42.5197 -83.5553 239° Southwest 280 322 7,000  Level Cleveland Center
08:23AM 42.4819 -83.6408 243° Southwest 275 316 7,000 780 Level Cleveland Center
08:24AM 42.4483 -83.7292 248° West 264 304 8,600 1,380 Climbing Cleveland Center
08:25AM 42.4300 -83.7903 242° Southwest 259 298 9,800 1,140 Climbing Cleveland Center
08:26AM 42.3894 -83.8950 241° Southwest 277 319 10,900 600 Climbing Cleveland Center
08:27AM 42.3492 -83.9942 241° Southwest 285 328 11,000 900 Climbing Cleveland Center
08:28AM 42.3108 -84.0875 246° West 290 334 12,700 1,800 Climbing Cleveland Center
08:29AM 42.2811 -84.1758 221° Southwest 277 319 14,600 1,680 Climbing Cleveland Center
08:30AM 42.2333 -84.2319 203° Southwest 243 280 16,400 1,620 Climbing Cleveland Center
08:31AM 42.1656 -84.2700 199° South 225 259 18,200 1,500 Climbing Cleveland Center
08:32AM 42.1106 -84.2950 198° South 218 251 19,400 1,140 Climbing Cleveland Center
08:33AM 42.0533 -84.3194 200° South 218 251 20,500 1,080 Climbing Cleveland Center
08:34AM 41.9983 -84.3469 198° South 213 245 21,600 720 Climbing Cleveland Center
08:35AM 41.9369 -84.3742 202° Southwest 220 253 22,000 180 Climbing Cleveland Center
08:36AM 41.8689 -84.4119 201° Southwest 249 287 22,000  Level Cleveland Center
08:37AM 41.7925 -84.4519 203° Southwest 271 312 22,000  Level Cleveland Center
08:38AM 41.7203 -84.4922 207° Southwest 277 319 22,000  Level Cleveland Center
08:39AM 41.6497 -84.5408 204° Southwest 277 319 22,000 -60 Level Cleveland Center
08:40AM 41.5794 -84.5836 212° Southwest 282 325 21,900  Descending Cleveland Center
08:42AM 41.4872 -84.6592 205° Southwest 276 318 22,000  Climbing Chicago Center
08:43AM 41.4161 -84.7031 205° Southwest 281 323 22,000  Level Chicago Center
08:44AM 41.3489 -84.7439 205° Southwest 281 323 22,000  Level Chicago Center
08:45AM 41.2775 -84.7875 205° Southwest 281 323 22,000  Level Chicago Center
08:46AM 41.2003 -84.8344 205° Southwest 276 318 22,000  Level Chicago Center
08:47AM 41.1350 -84.8747 201° Southwest 276 318 22,000  Level Chicago Center
08:48AM 41.0614 -84.9128 204° Southwest 276 318 22,000  Level Chicago Center
08:49AM 40.9881 -84.9564 202° Southwest 285 328 22,000  Level Chicago Center
08:50AM 40.9125 -84.9972 203° Southwest 290 334 22,000  Level Chicago Center
08:51AM 40.8347 -85.0408 203° Southwest 295 339 22,000  Level Chicago Center
08:53AM 40.6636 -85.1383 202° Southwest 281 323 22,000  Level Indianapolis Center
08:54AM 40.5881 -85.1778 202° Southwest 287 330 22,000  Level Indianapolis Center
08:55AM 40.5125 -85.2169 201° Southwest 293 337 22,000  Level Indianapolis Center
08:56AM 40.4389 -85.2533 201° Southwest 293 337 22,000  Level Indianapolis Center
08:57AM 40.3656 -85.2897 203° Southwest 287 330 22,000  Level Indianapolis Center
08:58AM 40.2900 -85.3314 201° Southwest 292 336 22,000 -660 Level Indianapolis Center
08:59AM 40.2228 -85.3650 203° Southwest 292 336 20,700 -1,620 Descending Indianapolis Center
09:00AM 40.1469 -85.4064 202° Southwest 297 342 18,800 -2,100 Descending Indianapolis Center
09:01AM 40.0733 -85.4453 205° Southwest 297 342 16,600 -2,340 Descending Indianapolis Center
09:02AM 39.9997 -85.4892 204° Southwest 297 342 14,200 -1,380 Descending Indianapolis Center
09:03AM 39.9283 -85.5306 203° Southwest 290 334 13,900 -900 Descending Indianapolis Center
09:04AM 39.8525 -85.5717 205° Southwest 290 334 12,400 -1,800 Descending Indianapolis Center
09:05AM 39.7725 -85.6208 204° Southwest 296 341 10,300 -2,160 Descending Indianapolis Center
09:06AM 39.7008 -85.6619 203° Southwest 296 341 8,100 -2,160 Descending Indianapolis Center
09:07AM 39.6314 -85.7003 203° Southwest 289 333 6,000 -2,100 Descending Indianapolis Center
09:08AM 39.5617 -85.7386 201° Southwest 278 320 4,000 -1,080 Descending Indianapolis Center
09:09AM 39.5008 -85.7689 199° South 266 306 3,900 -60 Descending Indianapolis Center
09:10AM 39.4439 -85.7942 204° Southwest 231 266 3,900  Level Indianapolis Center
09:11AM 39.3914 -85.8247 195° South 217 250 3,900 -180 Level Indianapolis Center
09:12AM 39.3408 -85.8419 167° South 209 241 3,600 -600 Descending Indianapolis Center
09:13AM 39.2892 -85.8267 218° Southwest 198 228 2,700 -840 Descending Indianapolis Center
09:15AM 39.2500 -85.8667 270° West 117 135 1,000 -600 Descending Indianapolis TRACON
09:16AM 39.2500 -85.8833 270° West 116 133 1,000  Level Indianapolis TRACON